»·PEaware :: N1728X KRNM-KEMT

N1728X :: KRNM-KEMT

FLIGHT INFORMATION

Flight Status: Arrived
Operator: Privately registered:
United States
More flights under this callsign
Pilot: Leonard B. (9579)
Aircraft: CESSNA 172 SKYHAWK
(C172)
More flights by this aircraft type
Origin: KRNM Ramona
United States
Destination: KEMT El Monte
United States
More flights between these airports :: More routes between these airports
Route: +ROBNN V208 OCN V23 DANAH V363 POM
File this flight plan on PilotEdge
Remarks: TEC route SANP23
Altitude:
(Current/Filed)
6,000ft
Speed:
(Current/Filed)
110kts
Departed: 08-Sep-20 02:25 PM
Arrived: 08-Sep-20 03:24 PM
Distance/Time
Traveled:
84nm/0:59
Distance/Time
To Go:
Arrived

Flight Plot

Page will automatically refresh every two minutes.


Map Options




Map Legend


Flown Route
Filed Route
Departure Airport
Arrival Airport
Navaid (VOR, NDB)
Fix

Horizontal Profiles

Position Reports

Time Latitude Longitude Heading Altitude Ground
Speed
08-Sep-20 14:05 33.039293 -116.908029 275 1390ft 0kts
08-Sep-20 14:06 33.039293 -116.908029 275 1390ft 0kts
08-Sep-20 14:07 33.039293 -116.908029 275 1390ft 0kts
08-Sep-20 14:08 33.039293 -116.908029 275 1390ft 0kts
08-Sep-20 14:09 33.039293 -116.908029 275 1390ft 0kts
08-Sep-20 14:10 33.039293 -116.908029 275 1390ft 0kts
08-Sep-20 14:11 33.039293 -116.908029 275 1390ft 0kts
08-Sep-20 14:12 33.039293 -116.908029 275 1390ft 0kts
08-Sep-20 14:14 33.039293 -116.908029 275 1390ft 0kts
08-Sep-20 14:15 33.039293 -116.908029 275 1390ft 0kts
08-Sep-20 14:16 33.039293 -116.908029 275 1390ft 0kts
08-Sep-20 14:17 33.039293 -116.908029 275 1390ft 0kts
08-Sep-20 14:18 33.039293 -116.908029 275 1390ft 0kts
08-Sep-20 14:19 33.039293 -116.908029 275 1390ft 0kts
08-Sep-20 14:20 33.039293 -116.908029 275 1390ft 0kts
08-Sep-20 14:21 33.039293 -116.908029 275 1390ft 0kts
08-Sep-20 14:22 33.039293 -116.908029 275 1390ft 0kts
08-Sep-20 14:23 33.038550 -116.907507 149 1389ft 0kts
08-Sep-20 14:24 33.038072 -116.907851 267 1388ft 12kts
08-Sep-20 14:25 33.040910 -116.928790 277 1759ft 81kts
08-Sep-20 14:26 33.043892 -116.956947 278 2367ft 88kts
08-Sep-20 14:27 33.047149 -116.986090 278 2962ft 89kts
08-Sep-20 14:28 33.049507 -117.015570 277 3557ft 91kts
08-Sep-20 14:29 33.054568 -117.046571 306 4088ft 100kts
08-Sep-20 14:30 33.070388 -117.075260 307 4602ft 105kts
08-Sep-20 14:30 33.083110 -117.099663 306 5020ft 103kts
08-Sep-20 14:32 33.100144 -117.133553 307 5580ft 102kts
08-Sep-20 14:33 33.114792 -117.162740 308 5985ft 102kts
08-Sep-20 14:33 33.127327 -117.187489 307 6014ft 102kts
08-Sep-20 14:35 33.144588 -117.222105 307 6015ft 104kts
08-Sep-20 14:36 33.159399 -117.251806 307 6015ft 104kts
08-Sep-20 14:36 33.171773 -117.276630 308 6016ft 104kts
08-Sep-20 14:37 33.186526 -117.306338 307 6015ft 104kts
08-Sep-20 14:38 33.201275 -117.336117 307 6015ft 104kts
08-Sep-20 14:39 33.216057 -117.365895 307 6015ft 104kts
08-Sep-20 14:40 33.230807 -117.395699 307 6015ft 104kts
08-Sep-20 14:41 33.247386 -117.423517 320 6015ft 102kts
08-Sep-20 14:42 33.267101 -117.447849 317 6015ft 102kts
08-Sep-20 14:43 33.287219 -117.472089 319 6021ft 103kts
08-Sep-20 14:44 33.307985 -117.496325 319 6033ft 103kts
08-Sep-20 14:45 33.328608 -117.520415 319 6029ft 105kts
08-Sep-20 14:46 33.349274 -117.544456 319 6055ft 103kts
08-Sep-20 14:47 33.370009 -117.568747 319 6056ft 103kts
08-Sep-20 14:48 33.390604 -117.592776 319 6041ft 102kts
08-Sep-20 14:49 33.410831 -117.616469 318 6041ft 101kts
08-Sep-20 14:50 33.431061 -117.640174 318 6042ft 101kts
08-Sep-20 14:51 33.451221 -117.663820 318 6044ft 101kts
08-Sep-20 14:52 33.471429 -117.687478 318 6043ft 102kts
08-Sep-20 14:53 33.496802 -117.699868 346 6043ft 101kts
08-Sep-20 14:54 33.524557 -117.705454 348 6043ft 101kts
08-Sep-20 14:55 33.552491 -117.710459 348 6043ft 102kts
08-Sep-20 14:56 33.580616 -117.715254 349 6043ft 102kts
08-Sep-20 14:57 33.608835 -117.720019 349 6042ft 102kts
08-Sep-20 14:58 33.636943 -117.724750 349 6042ft 102kts
08-Sep-20 14:59 33.665308 -117.729489 349 6017ft 103kts
08-Sep-20 15:00 33.692443 -117.739126 338 6018ft 102kts
08-Sep-20 15:01 33.718791 -117.751342 337 6017ft 101kts
08-Sep-20 15:02 33.745123 -117.763721 337 6017ft 101kts
08-Sep-20 15:03 33.771337 -117.776067 337 6027ft 101kts
08-Sep-20 15:04 33.799299 -117.781164 354 6026ft 103kts
08-Sep-20 15:05 33.827877 -117.781908 355 6026ft 103kts
08-Sep-20 15:06 33.856513 -117.782227 356 6025ft 102kts
08-Sep-20 15:07 33.885073 -117.782672 356 5673ft 106kts
08-Sep-20 15:08 33.915302 -117.783185 356 5163ft 110kts
08-Sep-20 15:09 33.946570 -117.783900 357 4653ft 114kts
08-Sep-20 15:10 33.978723 -117.784593 357 4146ft 117kts
08-Sep-20 15:11 34.010412 -117.785384 356 4025ft 109kts
08-Sep-20 15:12 34.040045 -117.786230 356 4026ft 105kts
08-Sep-20 15:13 34.069016 -117.787845 332 4020ft 103kts
08-Sep-20 15:15 34.079622 -117.825039 274 3732ft 98kts
08-Sep-20 15:15 34.080894 -117.851851 272 3691ft 99kts
08-Sep-20 15:16 34.082534 -117.883151 271 3179ft 90kts
08-Sep-20 15:17 34.083452 -117.912232 265 3036ft 81kts
08-Sep-20 15:18 34.084380 -117.940137 269 2494ft 85kts
08-Sep-20 15:19 34.086388 -117.968359 296 1824ft 88kts
08-Sep-20 15:20 34.106382 -117.984609 307 1362ft 81kts
08-Sep-20 15:21 34.113708 -118.009970 242 1219ft 77kts
08-Sep-20 15:22 34.099817 -118.026861 206 665ft 68kts
08-Sep-20 15:23 34.084962 -118.035436 205 285ft 31kts

Navigation Log

Ident Type
Flight plan parsing failed, navigation log unavailable